sensor_id;sensor_type;location;lat;lon;timestamp;temperature;humidity
5154;DHT22;2595;53.584;10.084;2022-12-29T00:02:14;8.40;99.90
5154;DHT22;2595;53.584;10.084;2022-12-29T00:04:40;8.40;99.90
5154;DHT22;2595;53.584;10.084;2022-12-29T00:07:06;8.40;99.90
5154;DHT22;2595;53.584;10.084;2022-12-29T00:09:32;8.50;99.90
5154;DHT22;2595;53.584;10.084;2022-12-29T00:11:58;8.50;99.90
5154;DHT22;2595;53.584;10.084;2022-12-29T00:14:24;8.50;99.90
5154;DHT22;2595;53.584;10.084;2022-12-29T00:17:08;8.50;99.90
5154;DHT22;2595;53.584;10.084;2022-12-29T00:19:34;8.50;99.90
5154;DHT22;2595;53.584;10.084;2022-12-29T00:22:18;8.60;99.90
5154;DHT22;2595;53.584;10.084;2022-12-29T00:25:03;8.50;99.90
5154;DHT22;2595;53.584;10.084;2022-12-29T00:27:48;8.60;99.90
5154;DHT22;2595;53.584;10.084;2022-12-29T00:30:32;8.60;99.90
5154;DHT22;2595;53.584;10.084;2022-12-29T00:33:18;8.60;99.90
5154;DHT22;2595;53.584;10.084;2022-12-29T00:38:32;8.70;99.90
5154;DHT22;2595;53.584;10.084;2022-12-29T00:41:17;8.70;99.90
5154;DHT22;2595;53.584;10.084;2022-12-29T00:44:01;8.70;99.90
5154;DHT22;2595;53.584;10.084;2022-12-29T00:46:33;8.70;99.90
5154;DHT22;2595;53.584;10.084;2022-12-29T00:48:59;8.80;99.90
5154;DHT22;2595;53.584;10.084;2022-12-29T00:51:44;8.80;99.90
5154;DHT22;2595;53.584;10.084;2022-12-29T00:54:10;8.80;99.90
5154;DHT22;2595;53.584;10.084;2022-12-29T00:56:35;8.80;99.90
5154;DHT22;2595;53.584;10.084;2022-12-29T00:59:02;8.80;99.90
5154;DHT22;2595;53.584;10.084;2022-12-29T01:01:28;8.80;99.90
5154;DHT22;2595;53.584;10.084;2022-12-29T01:03:54;8.90;99.90
5154;DHT22;2595;53.584;10.084;2022-12-29T01:06:19;8.90;99.90
5154;DHT22;2595;53.584;10.084;2022-12-29T01:08:45;8.90;99.90
5154;DHT22;2595;53.584;10.084;2022-12-29T01:11:12;8.90;99.90
5154;DHT22;2595;53.584;10.084;2022-12-29T01:13:38;8.90;99.90
5154;DHT22;2595;53.584;10.084;2022-12-29T01:16:06;8.90;99.90
5154;DHT22;2595;53.584;10.084;2022-12-29T01:18:32;8.90;99.90
5154;DHT22;2595;53.584;10.084;2022-12-29T01:21:03;8.90;99.90
5154;DHT22;2595;53.584;10.084;2022-12-29T01:23:30;9.00;99.90
5154;DHT22;2595;53.584;10.084;2022-12-29T01:25:56;8.90;99.90
5154;DHT22;2595;53.584;10.084;2022-12-29T01:28:22;8.90;99.90
5154;DHT22;2595;53.584;10.084;2022-12-29T01:30:47;9.00;99.90
5154;DHT22;2595;53.584;10.084;2022-12-29T01:33:13;9.00;99.90
5154;DHT22;2595;53.584;10.084;2022-12-29T01:35:39;9.00;99.90
5154;DHT22;2595;53.584;10.084;2022-12-29T01:38:05;9.00;99.90
5154;DHT22;2595;53.584;10.084;2022-12-29T01:40:30;9.10;99.90
5154;DHT22;2595;53.584;10.084;2022-12-29T01:42:56;9.00;99.90
5154;DHT22;2595;53.584;10.084;2022-12-29T01:45:22;9.10;99.90
5154;DHT22;2595;53.584;10.084;2022-12-29T01:47:54;9.10;99.90
5154;DHT22;2595;53.584;10.084;2022-12-29T01:50:33;9.10;99.90
5154;DHT22;2595;53.584;10.084;2022-12-29T01:53:37;9.10;99.90
5154;DHT22;2595;53.584;10.084;2022-12-29T01:55:58;9.10;99.90
5154;DHT22;2595;53.584;10.084;2022-12-29T01:58:29;9.10;99.90
5154;DHT22;2595;53.584;10.084;2022-12-29T02:00:56;9.00;99.90
5154;DHT22;2595;53.584;10.084;2022-12-29T02:03:23;9.10;99.90
5154;DHT22;2595;53.584;10.084;2022-12-29T02:06:17;9.00;99.90
5154;DHT22;2595;53.584;10.084;2022-12-29T02:08:46;9.10;99.90
5154;DHT22;2595;53.584;10.084;2022-12-29T02:11:13;9.00;99.90
5154;DHT22;2595;53.584;10.084;2022-12-29T02:13:39;9.10;99.90
5154;DHT22;2595;53.584;10.084;2022-12-29T02:21:36;9.10;99.90
5154;DHT22;2595;53.584;10.084;2022-12-29T02:50:35;9.10;99.90
5154;DHT22;2595;53.584;10.084;2022-12-29T02:53:05;9.10;99.90
5154;DHT22;2595;53.584;10.084;2022-12-29T02:55:32;9.10;99.90
5154;DHT22;2595;53.584;10.084;2022-12-29T02:58:20;9.10;99.90
5154;DHT22;2595;53.584;10.084;2022-12-29T03:03:54;9.10;99.90
5154;DHT22;2595;53.584;10.084;2022-12-29T03:09:52;9.10;99.90
5154;DHT22;2595;53.584;10.084;2022-12-29T03:15:34;9.20;99.90
5154;DHT22;2595;53.584;10.084;2022-12-29T03:18:23;9.20;99.90
5154;DHT22;2595;53.584;10.084;2022-12-29T03:20:54;9.20;99.90
5154;DHT22;2595;53.584;10.084;2022-12-29T03:23:20;9.20;99.90
5154;DHT22;2595;53.584;10.084;2022-12-29T03:25:49;9.20;99.90
5154;DHT22;2595;53.584;10.084;2022-12-29T03:28:45;9.30;99.90
5154;DHT22;2595;53.584;10.084;2022-12-29T03:31:08;9.20;99.90
5154;DHT22;2595;53.584;10.084;2022-12-29T03:33:36;9.20;99.90
5154;DHT22;2595;53.584;10.084;2022-12-29T03:36:05;9.20;99.90
5154;DHT22;2595;53.584;10.084;2022-12-29T03:38:44;9.20;99.90
5154;DHT22;2595;53.584;10.084;2022-12-29T03:41:14;9.20;99.90
5154;DHT22;2595;53.584;10.084;2022-12-29T03:43:41;9.30;99.90
5154;DHT22;2595;53.584;10.084;2022-12-29T03:46:07;9.30;99.90
5154;DHT22;2595;53.584;10.084;2022-12-29T03:48:32;9.30;99.90
5154;DHT22;2595;53.584;10.084;2022-12-29T03:50:58;9.30;99.90
5154;DHT22;2595;53.584;10.084;2022-12-29T03:53:24;9.30;99.90
5154;DHT22;2595;53.584;10.084;2022-12-29T03:55:50;9.30;99.90
5154;DHT22;2595;53.584;10.084;2022-12-29T03:58:15;9.30;99.90
5154;DHT22;2595;53.584;10.084;2022-12-29T04:00:41;9.30;99.90
5154;DHT22;2595;53.584;10.084;2022-12-29T04:03:06;9.30;99.90
5154;DHT22;2595;53.584;10.084;2022-12-29T04:05:32;9.30;99.90
5154;DHT22;2595;53.584;10.084;2022-12-29T04:07:58;9.30;99.90
5154;DHT22;2595;53.584;10.084;2022-12-29T04:10:23;9.40;99.90
5154;DHT22;2595;53.584;10.084;2022-12-29T04:12:49;9.40;99.90
5154;DHT22;2595;53.584;10.084;2022-12-29T04:15:14;9.40;99.90
5154;DHT22;2595;53.584;10.084;2022-12-29T04:17:40;9.40;99.90
5154;DHT22;2595;53.584;10.084;2022-12-29T04:20:06;9.50;99.90
5154;DHT22;2595;53.584;10.084;2022-12-29T04:23:03;9.50;99.90
5154;DHT22;2595;53.584;10.084;2022-12-29T04:25:30;9.50;99.90
5154;DHT22;2595;53.584;10.084;2022-12-29T04:27:56;9.50;99.90
5154;DHT22;2595;53.584;10.084;2022-12-29T04:30:21;9.50;99.90
5154;DHT22;2595;53.584;10.084;2022-12-29T04:32:47;9.50;99.90
5154;DHT22;2595;53.584;10.084;2022-12-29T04:35:13;9.50;99.90
5154;DHT22;2595;53.584;10.084;2022-12-29T04:37:39;9.50;99.90
5154;DHT22;2595;53.584;10.084;2022-12-29T04:40:05;9.50;99.90
5154;DHT22;2595;53.584;10.084;2022-12-29T04:42:30;9.50;99.90
5154;DHT22;2595;53.584;10.084;2022-12-29T04:44:56;9.40;99.90
5154;DHT22;2595;53.584;10.084;2022-12-29T04:47:21;9.40;99.90
5154;DHT22;2595;53.584;10.084;2022-12-29T04:49:47;9.40;99.90
5154;DHT22;2595;53.584;10.084;2022-12-29T04:52:12;9.40;99.90
5154;DHT22;2595;53.584;10.084;2022-12-29T04:54:38;9.40;99.90
5154;DHT22;2595;53.584;10.084;2022-12-29T04:57:05;9.40;99.90
5154;DHT22;2595;53.584;10.084;2022-12-29T04:59:30;9.40;99.90
5154;DHT22;2595;53.584;10.084;2022-12-29T05:01:56;9.40;99.90
5154;DHT22;2595;53.584;10.084;2022-12-29T05:04:21;9.40;99.90
5154;DHT22;2595;53.584;10.084;2022-12-29T05:06:47;9.40;99.90
5154;DHT22;2595;53.584;10.084;2022-12-29T05:09:13;9.50;99.90
5154;DHT22;2595;53.584;10.084;2022-12-29T05:11:39;9.50;99.90
5154;DHT22;2595;53.584;10.084;2022-12-29T05:14:04;9.50;99.90
5154;DHT22;2595;53.584;10.084;2022-12-29T05:16:30;9.50;99.90
5154;DHT22;2595;53.584;10.084;2022-12-29T05:18:55;9.50;99.90
5154;DHT22;2595;53.584;10.084;2022-12-29T05:21:21;9.50;99.90
5154;DHT22;2595;53.584;10.084;2022-12-29T05:23:47;9.50;99.90
5154;DHT22;2595;53.584;10.084;2022-12-29T05:26:12;9.50;99.90
5154;DHT22;2595;53.584;10.084;2022-12-29T05:28:38;9.50;99.90
5154;DHT22;2595;53.584;10.084;2022-12-29T05:31:03;9.50;99.90
5154;DHT22;2595;53.584;10.084;2022-12-29T05:33:29;9.50;99.90
5154;DHT22;2595;53.584;10.084;2022-12-29T05:35:54;9.50;99.90
5154;DHT22;2595;53.584;10.084;2022-12-29T05:38:20;9.60;99.90
5154;DHT22;2595;53.584;10.084;2022-12-29T05:40:46;9.60;99.90
5154;DHT22;2595;53.584;10.084;2022-12-29T05:43:11;9.60;99.90
5154;DHT22;2595;53.584;10.084;2022-12-29T05:45:37;9.60;99.90
5154;DHT22;2595;53.584;10.084;2022-12-29T05:48:03;9.60;99.90
5154;DHT22;2595;53.584;10.084;2022-12-29T05:50:28;9.60;99.90
5154;DHT22;2595;53.584;10.084;2022-12-29T05:52:54;9.70;99.90
5154;DHT22;2595;53.584;10.084;2022-12-29T05:55:20;9.70;99.90
5154;DHT22;2595;53.584;10.084;2022-12-29T05:57:45;9.70;99.90
5154;DHT22;2595;53.584;10.084;2022-12-29T06:00:11;9.80;99.90
5154;DHT22;2595;53.584;10.084;2022-12-29T06:02:37;9.80;99.90
5154;DHT22;2595;53.584;10.084;2022-12-29T06:05:03;9.80;99.90
5154;DHT22;2595;53.584;10.084;2022-12-29T06:07:28;9.80;99.90
5154;DHT22;2595;53.584;10.084;2022-12-29T06:09:54;9.80;99.90
5154;DHT22;2595;53.584;10.084;2022-12-29T06:12:19;9.90;99.90
5154;DHT22;2595;53.584;10.084;2022-12-29T06:14:45;9.90;99.90
5154;DHT22;2595;53.584;10.084;2022-12-29T06:17:10;9.90;99.90
5154;DHT22;2595;53.584;10.084;2022-12-29T06:19:36;9.90;99.90
5154;DHT22;2595;53.584;10.084;2022-12-29T06:22:02;9.90;99.90
5154;DHT22;2595;53.584;10.084;2022-12-29T06:24:28;10.00;99.90
5154;DHT22;2595;53.584;10.084;2022-12-29T06:26:53;10.00;99.90
5154;DHT22;2595;53.584;10.084;2022-12-29T06:29:19;10.00;99.90
5154;DHT22;2595;53.584;10.084;2022-12-29T06:31:45;10.00;99.90
5154;DHT22;2595;53.584;10.084;2022-12-29T06:34:12;10.10;99.90
5154;DHT22;2595;53.584;10.084;2022-12-29T06:36:38;10.10;99.90
5154;DHT22;2595;53.584;10.084;2022-12-29T06:39:04;10.10;99.90
5154;DHT22;2595;53.584;10.084;2022-12-29T06:41:29;10.10;99.90
5154;DHT22;2595;53.584;10.084;2022-12-29T06:43:55;10.10;99.90
5154;DHT22;2595;53.584;10.084;2022-12-29T06:46:21;10.10;99.90
5154;DHT22;2595;53.584;10.084;2022-12-29T06:48:46;10.10;99.90
5154;DHT22;2595;53.584;10.084;2022-12-29T06:51:12;10.00;99.90
5154;DHT22;2595;53.584;10.084;2022-12-29T06:53:37;10.00;99.90
5154;DHT22;2595;53.584;10.084;2022-12-29T06:56:03;10.00;99.90
5154;DHT22;2595;53.584;10.084;2022-12-29T06:58:29;10.00;99.90
5154;DHT22;2595;53.584;10.084;2022-12-29T07:00:54;10.00;99.90
5154;DHT22;2595;53.584;10.084;2022-12-29T07:03:20;9.90;99.90
5154;DHT22;2595;53.584;10.084;2022-12-29T07:05:45;9.90;99.90
5154;DHT22;2595;53.584;10.084;2022-12-29T07:08:11;10.00;99.90
5154;DHT22;2595;53.584;10.084;2022-12-29T07:10:37;9.90;99.90
5154;DHT22;2595;53.584;10.084;2022-12-29T07:13:02;9.90;99.90
5154;DHT22;2595;53.584;10.084;2022-12-29T07:15:28;9.90;99.90
5154;DHT22;2595;53.584;10.084;2022-12-29T07:17:53;9.90;99.90
5154;DHT22;2595;53.584;10.084;2022-12-29T07:20:19;9.90;99.90
5154;DHT22;2595;53.584;10.084;2022-12-29T07:22:45;10.00;99.90
5154;DHT22;2595;53.584;10.084;2022-12-29T07:25:12;9.90;99.90
5154;DHT22;2595;53.584;10.084;2022-12-29T07:27:38;9.90;99.90
5154;DHT22;2595;53.584;10.084;2022-12-29T07:30:04;9.90;99.90
5154;DHT22;2595;53.584;10.084;2022-12-29T07:32:32;9.90;99.90
5154;DHT22;2595;53.584;10.084;2022-12-29T07:34:59;9.90;99.90
5154;DHT22;2595;53.584;10.084;2022-12-29T07:37:24;9.90;99.90
5154;DHT22;2595;53.584;10.084;2022-12-29T07:39:50;9.90;99.90
5154;DHT22;2595;53.584;10.084;2022-12-29T07:42:15;9.90;99.90
5154;DHT22;2595;53.584;10.084;2022-12-29T07:44:41;9.80;99.90
5154;DHT22;2595;53.584;10.084;2022-12-29T07:47:06;9.90;99.90
5154;DHT22;2595;53.584;10.084;2022-12-29T07:49:32;9.90;99.90
5154;DHT22;2595;53.584;10.084;2022-12-29T07:51:57;9.90;99.90
5154;DHT22;2595;53.584;10.084;2022-12-29T07:54:23;9.90;99.90
5154;DHT22;2595;53.584;10.084;2022-12-29T07:56:49;9.90;99.90
5154;DHT22;2595;53.584;10.084;2022-12-29T07:59:14;9.90;99.90
5154;DHT22;2595;53.584;10.084;2022-12-29T08:01:40;9.90;99.90
5154;DHT22;2595;53.584;10.084;2022-12-29T08:04:07;9.90;99.90
5154;DHT22;2595;53.584;10.084;2022-12-29T08:06:32;9.90;99.90
5154;DHT22;2595;53.584;10.084;2022-12-29T08:08:58;9.90;99.90
5154;DHT22;2595;53.584;10.084;2022-12-29T08:11:25;9.90;99.90
5154;DHT22;2595;53.584;10.084;2022-12-29T08:13:51;9.90;99.90
5154;DHT22;2595;53.584;10.084;2022-12-29T08:16:17;9.90;99.90
5154;DHT22;2595;53.584;10.084;2022-12-29T08:18:42;9.90;99.90
5154;DHT22;2595;53.584;10.084;2022-12-29T08:21:08;9.80;99.90
5154;DHT22;2595;53.584;10.084;2022-12-29T08:23:33;9.80;99.90
5154;DHT22;2595;53.584;10.084;2022-12-29T08:26:01;9.80;99.90
5154;DHT22;2595;53.584;10.084;2022-12-29T08:28:27;9.80;99.90
5154;DHT22;2595;53.584;10.084;2022-12-29T08:30:52;9.80;99.90
5154;DHT22;2595;53.584;10.084;2022-12-29T08:33:18;9.80;99.90
5154;DHT22;2595;53.584;10.084;2022-12-29T08:35:44;9.80;99.90
5154;DHT22;2595;53.584;10.084;2022-12-29T08:38:10;9.80;99.90
5154;DHT22;2595;53.584;10.084;2022-12-29T08:40:38;9.80;99.90
5154;DHT22;2595;53.584;10.084;2022-12-29T08:43:04;9.90;99.90
5154;DHT22;2595;53.584;10.084;2022-12-29T08:45:30;9.90;99.90
5154;DHT22;2595;53.584;10.084;2022-12-29T08:47:56;9.80;99.90
5154;DHT22;2595;53.584;10.084;2022-12-29T08:50:21;9.90;99.90
5154;DHT22;2595;53.584;10.084;2022-12-29T08:52:47;9.90;99.90
5154;DHT22;2595;53.584;10.084;2022-12-29T08:55:13;9.90;99.90
5154;DHT22;2595;53.584;10.084;2022-12-29T08:57:38;9.90;99.90
5154;DHT22;2595;53.584;10.084;2022-12-29T09:00:05;9.90;99.90
5154;DHT22;2595;53.584;10.084;2022-12-29T09:02:31;9.90;99.90
5154;DHT22;2595;53.584;10.084;2022-12-29T09:04:56;10.00;99.90
5154;DHT22;2595;53.584;10.084;2022-12-29T09:07:26;9.90;99.90
5154;DHT22;2595;53.584;10.084;2022-12-29T09:09:51;10.00;99.90
5154;DHT22;2595;53.584;10.084;2022-12-29T09:12:17;10.00;99.90
5154;DHT22;2595;53.584;10.084;2022-12-29T09:14:43;10.00;99.90
5154;DHT22;2595;53.584;10.084;2022-12-29T09:17:11;10.00;99.90
5154;DHT22;2595;53.584;10.084;2022-12-29T09:19:55;10.00;99.90
5154;DHT22;2595;53.584;10.084;2022-12-29T09:22:21;10.00;99.90
5154;DHT22;2595;53.584;10.084;2022-12-29T09:24:46;10.10;99.90
5154;DHT22;2595;53.584;10.084;2022-12-29T09:27:12;10.10;99.90
5154;DHT22;2595;53.584;10.084;2022-12-29T09:29:38;10.10;99.90
5154;DHT22;2595;53.584;10.084;2022-12-29T09:32:03;10.10;99.90
5154;DHT22;2595;53.584;10.084;2022-12-29T09:34:29;10.10;99.90
5154;DHT22;2595;53.584;10.084;2022-12-29T09:36:54;10.10;99.90
5154;DHT22;2595;53.584;10.084;2022-12-29T09:39:21;10.10;99.90
5154;DHT22;2595;53.584;10.084;2022-12-29T09:41:52;10.10;99.90
5154;DHT22;2595;53.584;10.084;2022-12-29T09:47:11;10.10;99.90
5154;DHT22;2595;53.584;10.084;2022-12-29T09:52:37;10.20;99.90
5154;DHT22;2595;53.584;10.084;2022-12-29T09:55:09;10.20;99.90
5154;DHT22;2595;53.584;10.084;2022-12-29T09:57:54;10.20;99.90
5154;DHT22;2595;53.584;10.084;2022-12-29T10:00:24;10.20;99.90
5154;DHT22;2595;53.584;10.084;2022-12-29T10:02:59;10.20;99.90
5154;DHT22;2595;53.584;10.084;2022-12-29T10:06:13;10.40;99.90
5154;DHT22;2595;53.584;10.084;2022-12-29T10:08:52;10.50;99.90
5154;DHT22;2595;53.584;10.084;2022-12-29T10:11:45;10.60;99.90
5154;DHT22;2595;53.584;10.084;2022-12-29T10:22:32;10.50;99.90
5154;DHT22;2595;53.584;10.084;2022-12-29T10:25:30;10.50;99.90
5154;DHT22;2595;53.584;10.084;2022-12-29T10:27:59;10.50;99.90
5154;DHT22;2595;53.584;10.084;2022-12-29T10:30:25;10.50;99.90
5154;DHT22;2595;53.584;10.084;2022-12-29T10:33:01;10.60;99.90
5154;DHT22;2595;53.584;10.084;2022-12-29T10:35:39;10.50;99.90
5154;DHT22;2595;53.584;10.084;2022-12-29T10:38:28;10.50;99.90
5154;DHT22;2595;53.584;10.084;2022-12-29T10:41:19;10.50;99.90
5154;DHT22;2595;53.584;10.084;2022-12-29T10:43:47;10.50;99.90
5154;DHT22;2595;53.584;10.084;2022-12-29T10:46:18;10.50;99.90
5154;DHT22;2595;53.584;10.084;2022-12-29T10:48:43;10.60;99.90
5154;DHT22;2595;53.584;10.084;2022-12-29T10:51:20;10.70;99.90
5154;DHT22;2595;53.584;10.084;2022-12-29T10:53:51;10.80;99.90
5154;DHT22;2595;53.584;10.084;2022-12-29T10:56:38;10.80;99.90
5154;DHT22;2595;53.584;10.084;2022-12-29T10:59:18;10.80;99.90
5154;DHT22;2595;53.584;10.084;2022-12-29T11:07:28;10.70;99.90
5154;DHT22;2595;53.584;10.084;2022-12-29T11:10:03;10.70;99.90
5154;DHT22;2595;53.584;10.084;2022-12-29T11:12:41;10.70;99.90
5154;DHT22;2595;53.584;10.084;2022-12-29T11:15:19;10.60;99.90
5154;DHT22;2595;53.584;10.084;2022-12-29T11:17:52;10.60;99.90
5154;DHT22;2595;53.584;10.084;2022-12-29T11:20:37;10.60;99.90
5154;DHT22;2595;53.584;10.084;2022-12-29T11:23:06;10.60;99.90
5154;DHT22;2595;53.584;10.084;2022-12-29T11:25:45;10.60;99.90
5154;DHT22;2595;53.584;10.084;2022-12-29T11:28:15;10.70;99.90
5154;DHT22;2595;53.584;10.084;2022-12-29T11:30:41;10.80;99.90
5154;DHT22;2595;53.584;10.084;2022-12-29T11:33:08;10.90;99.90
5154;DHT22;2595;53.584;10.084;2022-12-29T11:38:00;10.90;99.90
5154;DHT22;2595;53.584;10.084;2022-12-29T11:40:27;10.80;99.90
5154;DHT22;2595;53.584;10.084;2022-12-29T11:42:58;10.80;99.90
5154;DHT22;2595;53.584;10.084;2022-12-29T11:45:30;10.80;99.90
5154;DHT22;2595;53.584;10.084;2022-12-29T11:48:17;10.70;99.90
5154;DHT22;2595;53.584;10.084;2022-12-29T11:50:51;10.70;99.90
5154;DHT22;2595;53.584;10.084;2022-12-29T11:53:23;10.70;99.90
5154;DHT22;2595;53.584;10.084;2022-12-29T11:56:05;10.70;99.90
5154;DHT22;2595;53.584;10.084;2022-12-29T11:58:33;10.70;99.90
5154;DHT22;2595;53.584;10.084;2022-12-29T12:01:06;10.70;99.90
5154;DHT22;2595;53.584;10.084;2022-12-29T12:03:35;10.70;99.90
5154;DHT22;2595;53.584;10.084;2022-12-29T12:06:02;10.60;99.90
5154;DHT22;2595;53.584;10.084;2022-12-29T12:11:34;10.60;99.90
5154;DHT22;2595;53.584;10.084;2022-12-29T12:14:17;10.60;99.90
5154;DHT22;2595;53.584;10.084;2022-12-29T12:21:59;10.50;99.90
5154;DHT22;2595;53.584;10.084;2022-12-29T12:28:00;10.50;99.90
5154;DHT22;2595;53.584;10.084;2022-12-29T12:30:14;10.50;99.90
5154;DHT22;2595;53.584;10.084;2022-12-29T12:35:50;10.50;99.90
5154;DHT22;2595;53.584;10.084;2022-12-29T12:39:47;10.40;99.90
5154;DHT22;2595;53.584;10.084;2022-12-29T12:44:49;10.40;99.90
5154;DHT22;2595;53.584;10.084;2022-12-29T12:58:14;10.40;99.90
5154;DHT22;2595;53.584;10.084;2022-12-29T13:06:46;10.40;99.90
5154;DHT22;2595;53.584;10.084;2022-12-29T13:09:16;10.50;99.90
5154;DHT22;2595;53.584;10.084;2022-12-29T13:14:42;10.40;99.90
5154;DHT22;2595;53.584;10.084;2022-12-29T13:20:00;10.40;99.90
5154;DHT22;2595;53.584;10.084;2022-12-29T13:32:16;10.50;99.90
5154;DHT22;2595;53.584;10.084;2022-12-29T13:37:28;10.40;99.90
5154;DHT22;2595;53.584;10.084;2022-12-29T13:40:02;10.40;99.90
5154;DHT22;2595;53.584;10.084;2022-12-29T13:42:29;10.40;99.90
5154;DHT22;2595;53.584;10.084;2022-12-29T13:45:09;10.40;99.90
5154;DHT22;2595;53.584;10.084;2022-12-29T13:47:54;10.30;99.90
5154;DHT22;2595;53.584;10.084;2022-12-29T13:50:26;10.30;99.90
5154;DHT22;2595;53.584;10.084;2022-12-29T13:55:51;10.20;99.90
5154;DHT22;2595;53.584;10.084;2022-12-29T13:58:31;10.20;99.90
5154;DHT22;2595;53.584;10.084;2022-12-29T14:03:51;10.20;99.90
5154;DHT22;2595;53.584;10.084;2022-12-29T14:06:31;10.20;99.90
5154;DHT22;2595;53.584;10.084;2022-12-29T14:09:06;10.20;99.90
5154;DHT22;2595;53.584;10.084;2022-12-29T14:11:48;10.20;99.90
5154;DHT22;2595;53.584;10.084;2022-12-29T14:16:51;10.10;99.90
5154;DHT22;2595;53.584;10.084;2022-12-29T14:19:21;10.00;99.90
5154;DHT22;2595;53.584;10.084;2022-12-29T14:22:02;9.80;99.90
5154;DHT22;2595;53.584;10.084;2022-12-29T14:24:40;9.60;99.90
5154;DHT22;2595;53.584;10.084;2022-12-29T14:34:55;9.00;99.90
5154;DHT22;2595;53.584;10.084;2022-12-29T14:37:35;8.90;99.90
5154;DHT22;2595;53.584;10.084;2022-12-29T14:42:47;8.90;99.90
5154;DHT22;2595;53.584;10.084;2022-12-29T14:47:49;8.80;99.90
5154;DHT22;2595;53.584;10.084;2022-12-29T14:52:50;8.80;99.90
5154;DHT22;2595;53.584;10.084;2022-12-29T14:57:46;8.80;99.90
5154;DHT22;2595;53.584;10.084;2022-12-29T15:00:22;8.80;99.90
5154;DHT22;2595;53.584;10.084;2022-12-29T15:03:17;8.80;99.90
5154;DHT22;2595;53.584;10.084;2022-12-29T15:05:50;8.80;99.90
5154;DHT22;2595;53.584;10.084;2022-12-29T15:08:19;8.80;99.90
5154;DHT22;2595;53.584;10.084;2022-12-29T15:10:56;8.80;99.90
5154;DHT22;2595;53.584;10.084;2022-12-29T15:13:31;8.80;99.90
5154;DHT22;2595;53.584;10.084;2022-12-29T15:15:57;8.80;99.90
5154;DHT22;2595;53.584;10.084;2022-12-29T15:18:31;8.80;99.90
5154;DHT22;2595;53.584;10.084;2022-12-29T15:21:03;8.80;99.90
5154;DHT22;2595;53.584;10.084;2022-12-29T15:23:31;8.80;99.90
5154;DHT22;2595;53.584;10.084;2022-12-29T15:26:00;8.80;99.90
5154;DHT22;2595;53.584;10.084;2022-12-29T15:28:26;8.90;99.90
5154;DHT22;2595;53.584;10.084;2022-12-29T15:31:04;8.90;99.90
5154;DHT22;2595;53.584;10.084;2022-12-29T15:33:30;8.90;99.90
5154;DHT22;2595;53.584;10.084;2022-12-29T15:36:02;8.90;99.90
5154;DHT22;2595;53.584;10.084;2022-12-29T15:38:29;8.90;99.90
5154;DHT22;2595;53.584;10.084;2022-12-29T15:41:00;8.90;99.90
5154;DHT22;2595;53.584;10.084;2022-12-29T15:46:05;9.00;99.90
5154;DHT22;2595;53.584;10.084;2022-12-29T15:48:31;9.00;99.90
5154;DHT22;2595;53.584;10.084;2022-12-29T15:50:57;9.00;99.90
5154;DHT22;2595;53.584;10.084;2022-12-29T15:53:29;9.00;99.90
5154;DHT22;2595;53.584;10.084;2022-12-29T15:56:02;9.10;99.90
5154;DHT22;2595;53.584;10.084;2022-12-29T15:58:31;9.10;99.90
5154;DHT22;2595;53.584;10.084;2022-12-29T16:01:04;9.10;99.90
5154;DHT22;2595;53.584;10.084;2022-12-29T16:03:33;9.10;99.90
5154;DHT22;2595;53.584;10.084;2022-12-29T16:06:10;9.10;99.90
5154;DHT22;2595;53.584;10.084;2022-12-29T16:09:14;9.10;99.90
5154;DHT22;2595;53.584;10.084;2022-12-29T16:11:43;9.10;99.90
5154;DHT22;2595;53.584;10.084;2022-12-29T16:14:16;9.10;99.90
5154;DHT22;2595;53.584;10.084;2022-12-29T16:16:43;9.00;99.90
5154;DHT22;2595;53.584;10.084;2022-12-29T16:19:23;9.00;99.90
5154;DHT22;2595;53.584;10.084;2022-12-29T16:21:50;9.00;99.90
5154;DHT22;2595;53.584;10.084;2022-12-29T16:24:18;9.00;99.90
5154;DHT22;2595;53.584;10.084;2022-12-29T16:26:51;9.10;99.90
5154;DHT22;2595;53.584;10.084;2022-12-29T16:29:19;9.00;99.90
5154;DHT22;2595;53.584;10.084;2022-12-29T16:31:53;9.00;99.90
5154;DHT22;2595;53.584;10.084;2022-12-29T16:34:30;9.00;99.90
5154;DHT22;2595;53.584;10.084;2022-12-29T16:37:01;9.00;99.90
5154;DHT22;2595;53.584;10.084;2022-12-29T16:39:36;9.00;99.90
5154;DHT22;2595;53.584;10.084;2022-12-29T16:42:34;9.10;99.90
5154;DHT22;2595;53.584;10.084;2022-12-29T16:50:30;9.10;99.90
5154;DHT22;2595;53.584;10.084;2022-12-29T16:52:55;9.10;99.90
5154;DHT22;2595;53.584;10.084;2022-12-29T16:55:21;9.10;99.90
5154;DHT22;2595;53.584;10.084;2022-12-29T16:57:48;9.10;99.90
5154;DHT22;2595;53.584;10.084;2022-12-29T17:00:26;9.20;99.90
5154;DHT22;2595;53.584;10.084;2022-12-29T17:02:55;9.10;99.90
5154;DHT22;2595;53.584;10.084;2022-12-29T17:05:22;9.10;99.90
5154;DHT22;2595;53.584;10.084;2022-12-29T17:07:47;9.20;99.90
5154;DHT22;2595;53.584;10.084;2022-12-29T17:10:14;9.20;99.90
5154;DHT22;2595;53.584;10.084;2022-12-29T17:12:41;9.20;99.90
5154;DHT22;2595;53.584;10.084;2022-12-29T17:15:21;9.20;99.90
5154;DHT22;2595;53.584;10.084;2022-12-29T17:17:52;9.20;99.90
5154;DHT22;2595;53.584;10.084;2022-12-29T17:20:23;9.20;99.90
5154;DHT22;2595;53.584;10.084;2022-12-29T17:22:50;9.20;99.90
5154;DHT22;2595;53.584;10.084;2022-12-29T17:25:24;9.20;99.90
5154;DHT22;2595;53.584;10.084;2022-12-29T17:27:54;9.20;99.90
5154;DHT22;2595;53.584;10.084;2022-12-29T17:30:22;9.20;99.90
5154;DHT22;2595;53.584;10.084;2022-12-29T17:32:53;9.20;99.90
5154;DHT22;2595;53.584;10.084;2022-12-29T17:35:21;9.20;99.90
5154;DHT22;2595;53.584;10.084;2022-12-29T17:37:48;9.20;99.90
5154;DHT22;2595;53.584;10.084;2022-12-29T17:42:46;9.20;99.90
5154;DHT22;2595;53.584;10.084;2022-12-29T17:45:17;9.20;99.90
5154;DHT22;2595;53.584;10.084;2022-12-29T17:47:44;9.20;99.90
5154;DHT22;2595;53.584;10.084;2022-12-29T17:50:30;9.20;99.90
5154;DHT22;2595;53.584;10.084;2022-12-29T17:53:01;9.20;99.90
5154;DHT22;2595;53.584;10.084;2022-12-29T17:55:28;9.30;99.90
5154;DHT22;2595;53.584;10.084;2022-12-29T17:57:54;9.30;99.90
5154;DHT22;2595;53.584;10.084;2022-12-29T18:00:23;9.30;99.90
5154;DHT22;2595;53.584;10.084;2022-12-29T18:02:52;9.30;99.90
5154;DHT22;2595;53.584;10.084;2022-12-29T18:05:21;9.30;99.90
5154;DHT22;2595;53.584;10.084;2022-12-29T18:07:47;9.30;99.90
5154;DHT22;2595;53.584;10.084;2022-12-29T18:10:14;9.30;99.90
5154;DHT22;2595;53.584;10.084;2022-12-29T18:12:42;9.40;99.90
5154;DHT22;2595;53.584;10.084;2022-12-29T18:15:29;9.40;99.90
5154;DHT22;2595;53.584;10.084;2022-12-29T18:18:22;9.40;99.90
5154;DHT22;2595;53.584;10.084;2022-12-29T18:20:49;9.40;99.90
5154;DHT22;2595;53.584;10.084;2022-12-29T18:23:23;9.40;99.90
5154;DHT22;2595;53.584;10.084;2022-12-29T18:25:59;9.30;99.90
5154;DHT22;2595;53.584;10.084;2022-12-29T18:28:26;9.30;99.90
5154;DHT22;2595;53.584;10.084;2022-12-29T18:30:53;9.30;99.90
5154;DHT22;2595;53.584;10.084;2022-12-29T18:33:20;9.30;99.90
5154;DHT22;2595;53.584;10.084;2022-12-29T18:38:17;9.30;99.90
5154;DHT22;2595;53.584;10.084;2022-12-29T18:40:43;9.40;99.90
5154;DHT22;2595;53.584;10.084;2022-12-29T18:43:16;9.30;99.90
5154;DHT22;2595;53.584;10.084;2022-12-29T18:45:43;9.30;99.90
5154;DHT22;2595;53.584;10.084;2022-12-29T18:48:15;9.30;99.90
5154;DHT22;2595;53.584;10.084;2022-12-29T18:50:41;9.30;99.90
5154;DHT22;2595;53.584;10.084;2022-12-29T18:53:14;9.30;99.90
5154;DHT22;2595;53.584;10.084;2022-12-29T18:55:41;9.30;99.90